sensor_id;sensor_type;location;lat;lon;timestamp;P1;durP1;ratioP1;P2;durP2;ratioP2
17595;SDS011;8916;47.086;15.920;2023-03-21T00:00:52;24.33;;;14.73;;
17595;SDS011;8916;47.086;15.920;2023-03-21T00:03:22;26.38;;;15.27;;
17595;SDS011;8916;47.086;15.920;2023-03-21T00:05:52;30.40;;;16.20;;
17595;SDS011;8916;47.086;15.920;2023-03-21T00:08:22;26.48;;;14.90;;
17595;SDS011;8916;47.086;15.920;2023-03-21T00:10:56;24.75;;;14.82;;
17595;SDS011;8916;47.086;15.920;2023-03-21T00:13:27;21.98;;;14.75;;
17595;SDS011;8916;47.086;15.920;2023-03-21T00:16:03;27.25;;;15.32;;
17595;SDS011;8916;47.086;15.920;2023-03-21T00:18:45;23.80;;;15.60;;
17595;SDS011;8916;47.086;15.920;2023-03-21T00:21:19;24.20;;;14.85;;
17595;SDS011;8916;47.086;15.920;2023-03-21T00:24:14;23.67;;;15.10;;
17595;SDS011;8916;47.086;15.920;2023-03-21T00:26:43;26.88;;;14.95;;
17595;SDS011;8916;47.086;15.920;2023-03-21T00:29:12;24.27;;;15.35;;
17595;SDS011;8916;47.086;15.920;2023-03-21T00:31:43;24.10;;;14.27;;
17595;SDS011;8916;47.086;15.920;2023-03-21T00:34:12;26.20;;;15.13;;
17595;SDS011;8916;47.086;15.920;2023-03-21T00:36:42;23.45;;;14.23;;
17595;SDS011;8916;47.086;15.920;2023-03-21T00:39:11;21.88;;;13.85;;
17595;SDS011;8916;47.086;15.920;2023-03-21T00:41:41;21.55;;;13.90;;
17595;SDS011;8916;47.086;15.920;2023-03-21T00:44:10;26.00;;;13.68;;
17595;SDS011;8916;47.086;15.920;2023-03-21T00:46:43;26.00;;;14.80;;
17595;SDS011;8916;47.086;15.920;2023-03-21T00:49:33;20.55;;;14.00;;
17595;SDS011;8916;47.086;15.920;2023-03-21T00:52:05;25.73;;;13.95;;
17595;SDS011;8916;47.086;15.920;2023-03-21T00:54:50;23.63;;;14.38;;
17595;SDS011;8916;47.086;15.920;2023-03-21T00:57:20;24.23;;;14.07;;
17595;SDS011;8916;47.086;15.920;2023-03-21T01:00:05;31.08;;;15.73;;
17595;SDS011;8916;47.086;15.920;2023-03-21T01:02:39;26.63;;;15.52;;
17595;SDS011;8916;47.086;15.920;2023-03-21T01:05:33;23.10;;;13.55;;
17595;SDS011;8916;47.086;15.920;2023-03-21T01:08:22;21.00;;;12.90;;
17595;SDS011;8916;47.086;15.920;2023-03-21T01:11:02;23.25;;;13.73;;
17595;SDS011;8916;47.086;15.920;2023-03-21T01:13:33;22.65;;;13.60;;
17595;SDS011;8916;47.086;15.920;2023-03-21T01:16:10;23.70;;;14.30;;
17595;SDS011;8916;47.086;15.920;2023-03-21T01:18:42;21.60;;;13.55;;
17595;SDS011;8916;47.086;15.920;2023-03-21T01:21:11;26.48;;;13.98;;
17595;SDS011;8916;47.086;15.920;2023-03-21T01:23:42;23.77;;;13.65;;
17595;SDS011;8916;47.086;15.920;2023-03-21T01:26:12;23.60;;;12.63;;
17595;SDS011;8916;47.086;15.920;2023-03-21T01:28:43;23.13;;;12.52;;
17595;SDS011;8916;47.086;15.920;2023-03-21T01:31:14;23.75;;;13.80;;
17595;SDS011;8916;47.086;15.920;2023-03-21T01:33:46;24.17;;;12.40;;
17595;SDS011;8916;47.086;15.920;2023-03-21T01:36:16;28.33;;;12.57;;
17595;SDS011;8916;47.086;15.920;2023-03-21T01:38:52;25.93;;;12.00;;
17595;SDS011;8916;47.086;15.920;2023-03-21T01:41:23;18.00;;;12.27;;
17595;SDS011;8916;47.086;15.920;2023-03-21T01:44:17;23.23;;;13.38;;
17595;SDS011;8916;47.086;15.920;2023-03-21T01:46:48;21.95;;;12.98;;
17595;SDS011;8916;47.086;15.920;2023-03-21T01:49:38;23.20;;;13.52;;
17595;SDS011;8916;47.086;15.920;2023-03-21T01:52:18;26.27;;;12.77;;
17595;SDS011;8916;47.086;15.920;2023-03-21T01:55:10;21.98;;;12.73;;
17595;SDS011;8916;47.086;15.920;2023-03-21T01:58:02;23.95;;;14.00;;
17595;SDS011;8916;47.086;15.920;2023-03-21T02:01:07;22.73;;;13.10;;
17595;SDS011;8916;47.086;15.920;2023-03-21T02:03:45;24.47;;;13.57;;
17595;SDS011;8916;47.086;15.920;2023-03-21T02:06:32;21.17;;;13.35;;
17595;SDS011;8916;47.086;15.920;2023-03-21T02:09:26;20.02;;;12.85;;
17595;SDS011;8916;47.086;15.920;2023-03-21T02:12:00;23.27;;;13.20;;
17595;SDS011;8916;47.086;15.920;2023-03-21T02:14:32;21.58;;;13.15;;
17595;SDS011;8916;47.086;15.920;2023-03-21T02:17:14;23.27;;;12.23;;
17595;SDS011;8916;47.086;15.920;2023-03-21T02:23:25;21.65;;;11.75;;
17595;SDS011;8916;47.086;15.920;2023-03-21T02:26:42;18.77;;;10.93;;
17595;SDS011;8916;47.086;15.920;2023-03-21T02:29:38;19.17;;;10.98;;
17595;SDS011;8916;47.086;15.920;2023-03-21T02:36:18;16.05;;;11.02;;
17595;SDS011;8916;47.086;15.920;2023-03-21T02:38:57;21.15;;;11.32;;
17595;SDS011;8916;47.086;15.920;2023-03-21T02:41:38;15.02;;;10.27;;
17595;SDS011;8916;47.086;15.920;2023-03-21T02:44:29;12.98;;;8.70;;
17595;SDS011;8916;47.086;15.920;2023-03-21T02:47:04;16.08;;;10.45;;
17595;SDS011;8916;47.086;15.920;2023-03-21T02:49:41;16.85;;;8.70;;
17595;SDS011;8916;47.086;15.920;2023-03-21T02:52:16;16.70;;;9.30;;
17595;SDS011;8916;47.086;15.920;2023-03-21T02:55:08;19.27;;;11.27;;
17595;SDS011;8916;47.086;15.920;2023-03-21T02:58:02;16.98;;;10.77;;
17595;SDS011;8916;47.086;15.920;2023-03-21T03:00:50;18.30;;;11.10;;
17595;SDS011;8916;47.086;15.920;2023-03-21T03:03:32;19.80;;;10.73;;
17595;SDS011;8916;47.086;15.920;2023-03-21T03:06:07;17.33;;;10.30;;
17595;SDS011;8916;47.086;15.920;2023-03-21T03:08:48;19.65;;;10.50;;
17595;SDS011;8916;47.086;15.920;2023-03-21T03:11:33;17.20;;;9.35;;
17595;SDS011;8916;47.086;15.920;2023-03-21T03:14:20;15.32;;;9.20;;
17595;SDS011;8916;47.086;15.920;2023-03-21T03:17:34;13.95;;;8.63;;
17595;SDS011;8916;47.086;15.920;2023-03-21T03:20:18;14.32;;;8.20;;
17595;SDS011;8916;47.086;15.920;2023-03-21T03:22:58;14.07;;;9.60;;
17595;SDS011;8916;47.086;15.920;2023-03-21T03:25:42;17.92;;;9.50;;
17595;SDS011;8916;47.086;15.920;2023-03-21T03:28:19;15.13;;;9.85;;
17595;SDS011;8916;47.086;15.920;2023-03-21T03:30:54;14.68;;;10.07;;
17595;SDS011;8916;47.086;15.920;2023-03-21T03:33:48;15.57;;;10.00;;
17595;SDS011;8916;47.086;15.920;2023-03-21T03:36:23;16.63;;;9.57;;
17595;SDS011;8916;47.086;15.920;2023-03-21T03:39:07;16.13;;;10.68;;
17595;SDS011;8916;47.086;15.920;2023-03-21T03:41:44;18.17;;;10.48;;
17595;SDS011;8916;47.086;15.920;2023-03-21T03:44:40;16.35;;;9.85;;
17595;SDS011;8916;47.086;15.920;2023-03-21T03:47:11;14.98;;;9.43;;
17595;SDS011;8916;47.086;15.920;2023-03-21T03:50:01;16.58;;;9.00;;
17595;SDS011;8916;47.086;15.920;2023-03-21T03:52:37;13.45;;;8.70;;
17595;SDS011;8916;47.086;15.920;2023-03-21T03:55:25;14.75;;;8.35;;
17595;SDS011;8916;47.086;15.920;2023-03-21T03:58:07;17.38;;;8.65;;
17595;SDS011;8916;47.086;15.920;2023-03-21T04:00:51;12.10;;;7.68;;
17595;SDS011;8916;47.086;15.920;2023-03-21T04:03:22;10.30;;;7.88;;
17595;SDS011;8916;47.086;15.920;2023-03-21T04:05:52;14.32;;;8.43;;
17595;SDS011;8916;47.086;15.920;2023-03-21T04:08:21;14.95;;;8.18;;
17595;SDS011;8916;47.086;15.920;2023-03-21T04:10:53;12.38;;;7.88;;
17595;SDS011;8916;47.086;15.920;2023-03-21T04:13:23;14.73;;;8.20;;
17595;SDS011;8916;47.086;15.920;2023-03-21T04:16:16;13.63;;;7.70;;
17595;SDS011;8916;47.086;15.920;2023-03-21T04:18:46;13.90;;;7.70;;
17595;SDS011;8916;47.086;15.920;2023-03-21T04:21:18;11.57;;;6.93;;
17595;SDS011;8916;47.086;15.920;2023-03-21T04:23:48;10.75;;;7.05;;
17595;SDS011;8916;47.086;15.920;2023-03-21T04:26:18;10.20;;;6.68;;
17595;SDS011;8916;47.086;15.920;2023-03-21T04:29:08;10.32;;;6.20;;
17595;SDS011;8916;47.086;15.920;2023-03-21T04:32:01;11.75;;;6.70;;
17595;SDS011;8916;47.086;15.920;2023-03-21T04:34:32;12.52;;;7.70;;
17595;SDS011;8916;47.086;15.920;2023-03-21T04:37:06;10.48;;;6.93;;
17595;SDS011;8916;47.086;15.920;2023-03-21T04:39:39;11.73;;;6.63;;
17595;SDS011;8916;47.086;15.920;2023-03-21T04:42:09;10.60;;;6.68;;
17595;SDS011;8916;47.086;15.920;2023-03-21T04:44:38;12.65;;;7.53;;
17595;SDS011;8916;47.086;15.920;2023-03-21T04:47:10;13.02;;;8.23;;
17595;SDS011;8916;47.086;15.920;2023-03-21T04:49:42;17.75;;;7.88;;
17595;SDS011;8916;47.086;15.920;2023-03-21T04:52:11;12.45;;;7.13;;
17595;SDS011;8916;47.086;15.920;2023-03-21T04:54:40;13.38;;;8.18;;
17595;SDS011;8916;47.086;15.920;2023-03-21T04:57:09;14.93;;;7.80;;
17595;SDS011;8916;47.086;15.920;2023-03-21T04:59:39;17.63;;;8.38;;
17595;SDS011;8916;47.086;15.920;2023-03-21T05:02:09;14.90;;;8.88;;
17595;SDS011;8916;47.086;15.920;2023-03-21T05:04:39;17.23;;;8.23;;
17595;SDS011;8916;47.086;15.920;2023-03-21T05:07:09;14.85;;;8.07;;
17595;SDS011;8916;47.086;15.920;2023-03-21T05:09:38;17.70;;;8.63;;
17595;SDS011;8916;47.086;15.920;2023-03-21T05:12:07;11.27;;;7.13;;
17595;SDS011;8916;47.086;15.920;2023-03-21T05:14:36;11.45;;;6.40;;
17595;SDS011;8916;47.086;15.920;2023-03-21T05:17:05;13.82;;;6.55;;
17595;SDS011;8916;47.086;15.920;2023-03-21T05:19:38;14.07;;;6.00;;
17595;SDS011;8916;47.086;15.920;2023-03-21T05:22:10;11.00;;;6.20;;
17595;SDS011;8916;47.086;15.920;2023-03-21T05:24:40;9.43;;;5.78;;
17595;SDS011;8916;47.086;15.920;2023-03-21T05:27:17;10.45;;;5.85;;
17595;SDS011;8916;47.086;15.920;2023-03-21T05:30:07;9.88;;;5.88;;
17595;SDS011;8916;47.086;15.920;2023-03-21T05:32:40;13.88;;;5.57;;
17595;SDS011;8916;47.086;15.920;2023-03-21T05:35:12;8.43;;;5.30;;
17595;SDS011;8916;47.086;15.920;2023-03-21T05:37:42;16.23;;;7.60;;
17595;SDS011;8916;47.086;15.920;2023-03-21T05:40:11;16.42;;;7.28;;
17595;SDS011;8916;47.086;15.920;2023-03-21T05:42:44;13.50;;;7.43;;
17595;SDS011;8916;47.086;15.920;2023-03-21T05:45:20;17.38;;;7.32;;
17595;SDS011;8916;47.086;15.920;2023-03-21T05:47:50;14.38;;;5.85;;
17595;SDS011;8916;47.086;15.920;2023-03-21T05:50:24;9.85;;;5.72;;
17595;SDS011;8916;47.086;15.920;2023-03-21T05:53:06;9.68;;;5.75;;
17595;SDS011;8916;47.086;15.920;2023-03-21T05:55:35;17.75;;;7.30;;
17595;SDS011;8916;47.086;15.920;2023-03-21T05:58:10;10.38;;;5.97;;
17595;SDS011;8916;47.086;15.920;2023-03-21T06:00:43;12.32;;;5.55;;
17595;SDS011;8916;47.086;15.920;2023-03-21T06:03:23;10.77;;;5.47;;
17595;SDS011;8916;47.086;15.920;2023-03-21T06:05:59;12.43;;;6.55;;
17595;SDS011;8916;47.086;15.920;2023-03-21T06:08:36;15.10;;;7.00;;
17595;SDS011;8916;47.086;15.920;2023-03-21T06:11:05;12.25;;;6.90;;
17595;SDS011;8916;47.086;15.920;2023-03-21T06:13:50;13.27;;;6.47;;
17595;SDS011;8916;47.086;15.920;2023-03-21T06:16:21;9.68;;;5.25;;
17595;SDS011;8916;47.086;15.920;2023-03-21T06:18:50;12.13;;;5.75;;
17595;SDS011;8916;47.086;15.920;2023-03-21T06:21:36;10.15;;;5.93;;
17595;SDS011;8916;47.086;15.920;2023-03-21T06:24:07;13.75;;;5.90;;
17595;SDS011;8916;47.086;15.920;2023-03-21T06:26:39;11.00;;;5.70;;
17595;SDS011;8916;47.086;15.920;2023-03-21T06:29:09;9.20;;;5.68;;
17595;SDS011;8916;47.086;15.920;2023-03-21T06:31:42;12.52;;;5.10;;
17595;SDS011;8916;47.086;15.920;2023-03-21T06:34:11;9.38;;;4.68;;
17595;SDS011;8916;47.086;15.920;2023-03-21T06:36:41;8.00;;;4.53;;
17595;SDS011;8916;47.086;15.920;2023-03-21T06:39:14;10.45;;;4.53;;
17595;SDS011;8916;47.086;15.920;2023-03-21T06:41:44;16.10;;;4.18;;
17595;SDS011;8916;47.086;15.920;2023-03-21T06:44:14;7.75;;;3.67;;
17595;SDS011;8916;47.086;15.920;2023-03-21T06:46:51;6.60;;;3.63;;
17595;SDS011;8916;47.086;15.920;2023-03-21T06:49:21;6.50;;;3.33;;
17595;SDS011;8916;47.086;15.920;2023-03-21T06:51:51;11.50;;;3.58;;
17595;SDS011;8916;47.086;15.920;2023-03-21T06:54:20;9.75;;;4.25;;
17595;SDS011;8916;47.086;15.920;2023-03-21T06:56:59;7.95;;;3.60;;
17595;SDS011;8916;47.086;15.920;2023-03-21T06:59:32;7.25;;;3.17;;
17595;SDS011;8916;47.086;15.920;2023-03-21T07:02:22;5.60;;;3.47;;
17595;SDS011;8916;47.086;15.920;2023-03-21T07:05:04;6.18;;;3.47;;
17595;SDS011;8916;47.086;15.920;2023-03-21T07:07:37;4.97;;;2.78;;
17595;SDS011;8916;47.086;15.920;2023-03-21T07:10:07;6.70;;;2.63;;
17595;SDS011;8916;47.086;15.920;2023-03-21T07:12:53;3.83;;;2.20;;
17595;SDS011;8916;47.086;15.920;2023-03-21T07:15:51;3.15;;;2.13;;
17595;SDS011;8916;47.086;15.920;2023-03-21T07:18:21;4.63;;;2.55;;
17595;SDS011;8916;47.086;15.920;2023-03-21T07:20:50;9.80;;;2.78;;
17595;SDS011;8916;47.086;15.920;2023-03-21T07:23:21;11.57;;;2.78;;
17595;SDS011;8916;47.086;15.920;2023-03-21T07:25:53;7.80;;;2.72;;
17595;SDS011;8916;47.086;15.920;2023-03-21T07:28:23;5.00;;;2.63;;
17595;SDS011;8916;47.086;15.920;2023-03-21T07:30:53;4.35;;;3.10;;
17595;SDS011;8916;47.086;15.920;2023-03-21T07:33:24;4.57;;;3.13;;
17595;SDS011;8916;47.086;15.920;2023-03-21T07:35:58;5.65;;;3.15;;
17595;SDS011;8916;47.086;15.920;2023-03-21T07:38:29;6.80;;;2.92;;
17595;SDS011;8916;47.086;15.920;2023-03-21T07:40:58;5.45;;;2.88;;
17595;SDS011;8916;47.086;15.920;2023-03-21T07:43:31;4.30;;;2.78;;
17595;SDS011;8916;47.086;15.920;2023-03-21T07:46:02;4.40;;;2.50;;
17595;SDS011;8916;47.086;15.920;2023-03-21T07:48:32;6.85;;;2.40;;
17595;SDS011;8916;47.086;15.920;2023-03-21T07:51:01;6.45;;;2.30;;
17595;SDS011;8916;47.086;15.920;2023-03-21T07:53:36;4.50;;;2.00;;
17595;SDS011;8916;47.086;15.920;2023-03-21T07:56:05;4.88;;;2.45;;
17595;SDS011;8916;47.086;15.920;2023-03-21T07:58:35;5.18;;;2.30;;
17595;SDS011;8916;47.086;15.920;2023-03-21T08:01:04;10.07;;;2.72;;
17595;SDS011;8916;47.086;15.920;2023-03-21T08:03:33;3.47;;;2.40;;
17595;SDS011;8916;47.086;15.920;2023-03-21T08:06:04;4.60;;;2.60;;
17595;SDS011;8916;47.086;15.920;2023-03-21T08:08:35;4.20;;;2.38;;
17595;SDS011;8916;47.086;15.920;2023-03-21T08:11:05;5.05;;;2.47;;
17595;SDS011;8916;47.086;15.920;2023-03-21T08:13:35;3.42;;;2.33;;
17595;SDS011;8916;47.086;15.920;2023-03-21T08:16:04;4.97;;;2.67;;
17595;SDS011;8916;47.086;15.920;2023-03-21T08:18:34;5.03;;;2.40;;
17595;SDS011;8916;47.086;15.920;2023-03-21T08:21:03;3.38;;;1.92;;
17595;SDS011;8916;47.086;15.920;2023-03-21T08:23:36;3.30;;;2.10;;
17595;SDS011;8916;47.086;15.920;2023-03-21T08:26:06;4.65;;;2.13;;
17595;SDS011;8916;47.086;15.920;2023-03-21T08:28:35;2.72;;;1.92;;
17595;SDS011;8916;47.086;15.920;2023-03-21T08:31:06;5.00;;;1.95;;
17595;SDS011;8916;47.086;15.920;2023-03-21T08:33:36;3.15;;;1.70;;
17595;SDS011;8916;47.086;15.920;2023-03-21T08:36:05;3.50;;;1.70;;
17595;SDS011;8916;47.086;15.920;2023-03-21T08:38:37;3.28;;;1.58;;
17595;SDS011;8916;47.086;15.920;2023-03-21T08:41:06;3.42;;;1.70;;
17595;SDS011;8916;47.086;15.920;2023-03-21T08:43:35;5.60;;;1.58;;
17595;SDS011;8916;47.086;15.920;2023-03-21T08:46:04;2.58;;;1.75;;
17595;SDS011;8916;47.086;15.920;2023-03-21T08:48:34;2.83;;;1.63;;
17595;SDS011;8916;47.086;15.920;2023-03-21T08:51:05;2.42;;;1.33;;
17595;SDS011;8916;47.086;15.920;2023-03-21T08:53:34;3.35;;;1.60;;
17595;SDS011;8916;47.086;15.920;2023-03-21T08:56:04;6.28;;;1.80;;
17595;SDS011;8916;47.086;15.920;2023-03-21T08:58:34;2.65;;;1.40;;
17595;SDS011;8916;47.086;15.920;2023-03-21T09:01:04;2.65;;;1.33;;
17595;SDS011;8916;47.086;15.920;2023-03-21T09:03:37;2.45;;;1.60;;
17595;SDS011;8916;47.086;15.920;2023-03-21T09:06:06;2.85;;;1.30;;
17595;SDS011;8916;47.086;15.920;2023-03-21T09:08:37;2.53;;;0.90;;
17595;SDS011;8916;47.086;15.920;2023-03-21T09:11:09;1.55;;;1.20;;
17595;SDS011;8916;47.086;15.920;2023-03-21T09:13:38;0.90;;;0.70;;
17595;SDS011;8916;47.086;15.920;2023-03-21T09:16:07;0.77;;;0.77;;
17595;SDS011;8916;47.086;15.920;2023-03-21T09:18:37;0.68;;;0.68;;
17595;SDS011;8916;47.086;15.920;2023-03-21T09:21:14;0.90;;;0.60;;
17595;SDS011;8916;47.086;15.920;2023-03-21T09:23:44;0.73;;;0.63;;
17595;SDS011;8916;47.086;15.920;2023-03-21T09:26:16;1.15;;;0.63;;
17595;SDS011;8916;47.086;15.920;2023-03-21T09:28:45;1.70;;;1.15;;
17595;SDS011;8916;47.086;15.920;2023-03-21T09:31:15;1.30;;;0.82;;
17595;SDS011;8916;47.086;15.920;2023-03-21T09:33:47;1.67;;;0.70;;
17595;SDS011;8916;47.086;15.920;2023-03-21T09:36:17;1.23;;;0.90;;
17595;SDS011;8916;47.086;15.920;2023-03-21T09:38:48;1.50;;;1.08;;
17595;SDS011;8916;47.086;15.920;2023-03-21T09:41:24;3.70;;;1.08;;
17595;SDS011;8916;47.086;15.920;2023-03-21T09:44:15;3.10;;;1.20;;
17595;SDS011;8916;47.086;15.920;2023-03-21T09:47:09;2.10;;;1.13;;
17595;SDS011;8916;47.086;15.920;2023-03-21T09:49:48;1.80;;;1.08;;
17595;SDS011;8916;47.086;15.920;2023-03-21T09:52:41;1.20;;;1.02;;
17595;SDS011;8916;47.086;15.920;2023-03-21T09:55:16;1.55;;;1.02;;
17595;SDS011;8916;47.086;15.920;2023-03-21T09:57:52;2.45;;;1.10;;
17595;SDS011;8916;47.086;15.920;2023-03-21T10:00:29;2.53;;;1.00;;
17595;SDS011;8916;47.086;15.920;2023-03-21T10:03:09;1.80;;;1.00;;
17595;SDS011;8916;47.086;15.920;2023-03-21T10:05:50;0.77;;;0.77;;
17595;SDS011;8916;47.086;15.920;2023-03-21T10:08:24;3.50;;;1.10;;
17595;SDS011;8916;47.086;15.920;2023-03-21T10:10:57;1.13;;;0.70;;
17595;SDS011;8916;47.086;15.920;2023-03-21T10:13:33;2.78;;;1.10;;
17595;SDS011;8916;47.086;15.920;2023-03-21T10:16:09;6.55;;;1.30;;
17595;SDS011;8916;47.086;15.920;2023-03-21T10:18:42;1.48;;;1.00;;
17595;SDS011;8916;47.086;15.920;2023-03-21T10:21:17;2.58;;;0.90;;
17595;SDS011;8916;47.086;15.920;2023-03-21T10:24:10;2.97;;;0.90;;
17595;SDS011;8916;47.086;15.920;2023-03-21T10:26:42;1.65;;;0.95;;
17595;SDS011;8916;47.086;15.920;2023-03-21T10:29:14;1.73;;;0.88;;
17595;SDS011;8916;47.086;15.920;2023-03-21T10:31:45;1.75;;;0.90;;
17595;SDS011;8916;47.086;15.920;2023-03-21T10:34:16;0.80;;;0.80;;
17595;SDS011;8916;47.086;15.920;2023-03-21T10:36:50;1.40;;;0.70;;
17595;SDS011;8916;47.086;15.920;2023-03-21T10:39:20;1.00;;;0.73;;
17595;SDS011;8916;47.086;15.920;2023-03-21T10:41:54;0.95;;;0.70;;
17595;SDS011;8916;47.086;15.920;2023-03-21T10:44:29;1.88;;;1.10;;
17595;SDS011;8916;47.086;15.920;2023-03-21T10:47:03;3.30;;;1.00;;
17595;SDS011;8916;47.086;15.920;2023-03-21T10:49:34;1.88;;;0.75;;
17595;SDS011;8916;47.086;15.920;2023-03-21T10:52:26;0.80;;;0.70;;
17595;SDS011;8916;47.086;15.920;2023-03-21T10:55:06;1.65;;;0.80;;
17595;SDS011;8916;47.086;15.920;2023-03-21T10:57:44;2.10;;;1.23;;
17595;SDS011;8916;47.086;15.920;2023-03-21T11:00:18;1.65;;;1.00;;
17595;SDS011;8916;47.086;15.920;2023-03-21T11:02:51;1.48;;;1.20;;
17595;SDS011;8916;47.086;15.920;2023-03-21T11:05:21;2.53;;;0.90;;
17595;SDS011;8916;47.086;15.920;2023-03-21T11:07:57;2.00;;;0.82;;
17595;SDS011;8916;47.086;15.920;2023-03-21T11:10:30;1.50;;;1.02;;
17595;SDS011;8916;47.086;15.920;2023-03-21T11:13:03;1.85;;;1.15;;
17595;SDS011;8916;47.086;15.920;2023-03-21T11:15:41;1.20;;;0.80;;
17595;SDS011;8916;47.086;15.920;2023-03-21T11:18:21;2.05;;;1.00;;
17595;SDS011;8916;47.086;15.920;2023-03-21T11:20:53;2.00;;;1.10;;
17595;SDS011;8916;47.086;15.920;2023-03-21T11:23:25;1.55;;;1.15;;
17595;SDS011;8916;47.086;15.920;2023-03-21T11:25:58;2.45;;;1.00;;
17595;SDS011;8916;47.086;15.920;2023-03-21T11:28:31;1.48;;;1.15;;
17595;SDS011;8916;47.086;15.920;2023-03-21T11:31:05;1.58;;;0.80;;
17595;SDS011;8916;47.086;15.920;2023-03-21T11:33:36;2.72;;;1.02;;
17595;SDS011;8916;47.086;15.920;2023-03-21T11:36:23;2.05;;;1.02;;
17595;SDS011;8916;47.086;15.920;2023-03-21T11:39:12;7.25;;;0.88;;
17595;SDS011;8916;47.086;15.920;2023-03-21T11:41:55;1.27;;;0.90;;
17595;SDS011;8916;47.086;15.920;2023-03-21T11:44:28;1.17;;;0.93;;
17595;SDS011;8916;47.086;15.920;2023-03-21T11:47:01;1.47;;;0.97;;
17595;SDS011;8916;47.086;15.920;2023-03-21T11:49:30;1.30;;;0.95;;
17595;SDS011;8916;47.086;15.920;2023-03-21T11:52:06;2.60;;;0.95;;
17595;SDS011;8916;47.086;15.920;2023-03-21T11:54:50;2.72;;;0.73;;
17595;SDS011;8916;47.086;15.920;2023-03-21T11:57:39;2.67;;;0.80;;
17595;SDS011;8916;47.086;15.920;2023-03-21T12:00:16;1.67;;;1.10;;
17595;SDS011;8916;47.086;15.920;2023-03-21T12:06:23;1.33;;;1.00;;
17595;SDS011;8916;47.086;15.920;2023-03-21T12:09:02;1.17;;;0.80;;
17595;SDS011;8916;47.086;15.920;2023-03-21T12:11:48;4.82;;;1.42;;
17595;SDS011;8916;47.086;15.920;2023-03-21T12:14:29;2.70;;;1.10;;
17595;SDS011;8916;47.086;15.920;2023-03-21T12:17:11;1.23;;;0.90;;
17595;SDS011;8916;47.086;15.920;2023-03-21T12:19:55;1.55;;;1.05;;
17595;SDS011;8916;47.086;15.920;2023-03-21T12:23:07;1.20;;;0.88;;
17595;SDS011;8916;47.086;15.920;2023-03-21T12:26:07;2.88;;;0.90;;
17595;SDS011;8916;47.086;15.920;2023-03-21T12:29:02;1.70;;;0.80;;
17595;SDS011;8916;47.086;15.920;2023-03-21T12:31:49;5.77;;;2.17;;
17595;SDS011;8916;47.086;15.920;2023-03-21T12:34:41;3.47;;;1.25;;
17595;SDS011;8916;47.086;15.920;2023-03-21T12:37:28;2.83;;;1.20;;
17595;SDS011;8916;47.086;15.920;2023-03-21T12:40:11;4.88;;;1.30;;
17595;SDS011;8916;47.086;15.920;2023-03-21T12:43:01;3.83;;;0.90;;
17595;SDS011;8916;47.086;15.920;2023-03-21T12:45:52;6.00;;;1.85;;
17595;SDS011;8916;47.086;15.920;2023-03-21T12:48:35;12.07;;;4.45;;
17595;SDS011;8916;47.086;15.920;2023-03-21T12:51:10;2.30;;;1.17;;
17595;SDS011;8916;47.086;15.920;2023-03-21T12:53:53;3.47;;;1.20;;
17595;SDS011;8916;47.086;15.920;2023-03-21T12:59:04;2.08;;;0.98;;
17595;SDS011;8916;47.086;15.920;2023-03-21T13:01:43;1.67;;;1.08;;
17595;SDS011;8916;47.086;15.920;2023-03-21T13:07:13;4.38;;;1.08;;
17595;SDS011;8916;47.086;15.920;2023-03-21T13:09:47;4.40;;;1.40;;
17595;SDS011;8916;47.086;15.920;2023-03-21T13:15:33;3.10;;;1.20;;
17595;SDS011;8916;47.086;15.920;2023-03-21T13:18:30;2.90;;;1.27;;
17595;SDS011;8916;47.086;15.920;2023-03-21T13:21:09;8.40;;;1.60;;
17595;SDS011;8916;47.086;15.920;2023-03-21T13:23:54;1.55;;;1.27;;
17595;SDS011;8916;47.086;15.920;2023-03-21T13:26:35;1.55;;;1.13;;
17595;SDS011;8916;47.086;15.920;2023-03-21T13:29:13;2.40;;;1.20;;
17595;SDS011;8916;47.086;15.920;2023-03-21T13:31:51;2.22;;;0.73;;
17595;SDS011;8916;47.086;15.920;2023-03-21T13:34:23;1.17;;;0.90;;
17595;SDS011;8916;47.086;15.920;2023-03-21T13:36:56;5.28;;;2.05;;
17595;SDS011;8916;47.086;15.920;2023-03-21T13:39:27;3.10;;;1.35;;
17595;SDS011;8916;47.086;15.920;2023-03-21T13:42:02;1.52;;;1.00;;
17595;SDS011;8916;47.086;15.920;2023-03-21T13:44:38;1.00;;;0.80;;
17595;SDS011;8916;47.086;15.920;2023-03-21T13:47:27;1.13;;;0.75;;
17595;SDS011;8916;47.086;15.920;2023-03-21T13:53:09;7.32;;;1.35;;
17595;SDS011;8916;47.086;15.920;2023-03-21T13:55:58;2.60;;;0.95;;
17595;SDS011;8916;47.086;15.920;2023-03-21T13:58:53;1.20;;;0.95;;
17595;SDS011;8916;47.086;15.920;2023-03-21T14:04:05;1.58;;;1.10;;
17595;SDS011;8916;47.086;15.920;2023-03-21T14:06:43;2.35;;;0.70;;
17595;SDS011;8916;47.086;15.920;2023-03-21T14:09:21;1.15;;;0.60;;
17595;SDS011;8916;47.086;15.920;2023-03-21T14:11:56;1.25;;;0.90;;
17595;SDS011;8916;47.086;15.920;2023-03-21T14:14:36;2.65;;;0.95;;
17595;SDS011;8916;47.086;15.920;2023-03-21T14:17:11;4.18;;;1.08;;
17595;SDS011;8916;47.086;15.920;2023-03-21T14:19:40;2.38;;;0.90;;
17595;SDS011;8916;47.086;15.920;2023-03-21T14:22:09;1.77;;;1.10;;
17595;SDS011;8916;47.086;15.920;2023-03-21T14:24:45;2.03;;;0.98;;
17595;SDS011;8916;47.086;15.920;2023-03-21T14:27:16;2.10;;;1.10;;
17595;SDS011;8916;47.086;15.920;2023-03-21T14:29:48;3.50;;;1.10;;
17595;SDS011;8916;47.086;15.920;2023-03-21T14:32:21;1.95;;;1.05;;
17595;SDS011;8916;47.086;15.920;2023-03-21T14:34:53;3.22;;;1.15;;
17595;SDS011;8916;47.086;15.920;2023-03-21T14:37:28;2.17;;;1.33;;
17595;SDS011;8916;47.086;15.920;2023-03-21T14:40:01;1.50;;;1.30;;
17595;SDS011;8916;47.086;15.920;2023-03-21T14:42:35;1.95;;;1.00;;
17595;SDS011;8916;47.086;15.920;2023-03-21T14:45:15;2.67;;;1.23;;
17595;SDS011;8916;47.086;15.920;2023-03-21T14:47:57;3.15;;;1.35;;
17595;SDS011;8916;47.086;15.920;2023-03-21T14:50:30;1.75;;;0.98;;
17595;SDS011;8916;47.086;15.920;2023-03-21T14:53:06;2.38;;;1.15;;
17595;SDS011;8916;47.086;15.920;2023-03-21T14:55:43;4.50;;;1.10;;
17595;SDS011;8916;47.086;15.920;2023-03-21T14:58:14;2.53;;;1.08;;
17595;SDS011;8916;47.086;15.920;2023-03-21T15:00:48;11.50;;;4.60;;
17595;SDS011;8916;47.086;15.920;2023-03-21T15:03:18;3.63;;;2.17;;
17595;SDS011;8916;47.086;15.920;2023-03-21T15:05:49;1.48;;;0.95;;
17595;SDS011;8916;47.086;15.920;2023-03-21T15:08:19;1.80;;;1.10;;
17595;SDS011;8916;47.086;15.920;2023-03-21T15:10:54;1.95;;;1.08;;
17595;SDS011;8916;47.086;15.920;2023-03-21T15:13:34;1.85;;;1.00;;
17595;SDS011;8916;47.086;15.920;2023-03-21T15:16:08;1.90;;;1.10;;
17595;SDS011;8916;47.086;15.920;2023-03-21T15:18:41;2.55;;;1.10;;
17595;SDS011;8916;47.086;15.920;2023-03-21T15:21:12;2.78;;;0.98;;
17595;SDS011;8916;47.086;15.920;2023-03-21T15:23:48;2.10;;;1.23;;
17595;SDS011;8916;47.086;15.920;2023-03-21T15:26:23;3.08;;;1.38;;
17595;SDS011;8916;47.086;15.920;2023-03-21T15:28:55;6.47;;;1.05;;
17595;SDS011;8916;47.086;15.920;2023-03-21T15:31:29;2.65;;;0.90;;
17595;SDS011;8916;47.086;15.920;2023-03-21T15:34:02;1.48;;;0.82;;
17595;SDS011;8916;47.086;15.920;2023-03-21T15:36:35;3.05;;;1.10;;
17595;SDS011;8916;47.086;15.920;2023-03-21T15:39:11;2.05;;;1.00;;
17595;SDS011;8916;47.086;15.920;2023-03-21T15:41:54;2.10;;;1.10;;
17595;SDS011;8916;47.086;15.920;2023-03-21T15:44:29;2.85;;;0.98;;
17595;SDS011;8916;47.086;15.920;2023-03-21T15:47:00;2.88;;;1.05;;
17595;SDS011;8916;47.086;15.920;2023-03-21T15:49:30;3.13;;;1.13;;
17595;SDS011;8916;47.086;15.920;2023-03-21T15:52:02;0.80;;;0.80;;
17595;SDS011;8916;47.086;15.920;2023-03-21T15:54:35;2.35;;;1.10;;
17595;SDS011;8916;47.086;15.920;2023-03-21T15:57:17;4.68;;;1.20;;
17595;SDS011;8916;47.086;15.920;2023-03-21T15:59:53;3.30;;;1.27;;